Time;durP1;ratioP1;P1;durP2;ratioP2;P2;SDS_P1;SDS_P2;PMS_P1;PMS_P2;Temp;Humidity;BMP_temperature;BMP_pressure;BME280_temperature;BME280_humidity;BME280_pressure;Samples;Min_cycle;Max_cycle;Signal;HPM_P1;HPM_P2
2022/01/15 00:00:34;;;;;;;;;;;;;;;;;;10428064;28;20038;-73
2022/01/15 00:05:37;;;;;;;;;;;;;;;;;;10443053;28;20015;-73
2022/01/15 00:10:41;;;;;;;17.50;6.27;;;;;;;;;;10437417;28;19967;-73
2022/01/15 00:15:50;;;;;;;;;;;;;;;;;;10421164;28;20075;-72
2022/01/15 00:20:53;;;;;;;18.90;6.30;;;;;;;;;;10418247;28;19925;-72
2022/01/15 00:25:57;;;;;;;17.20;7.07;;;;;;;;;;10433390;28;20037;-72
2022/01/15 00:31:00;;;;;;;16.53;6.40;;;;;;;;;;10417860;28;20034;-73
2022/01/15 00:36:03;;;;;;;19.60;6.90;;;;;;;;;;10421920;28;20026;-73
2022/01/15 00:41:08;;;;;;;19.63;7.87;;;;;;;;;;10422863;28;20036;-72
2022/01/15 00:46:11;;;;;;;21.90;7.33;;;;;;;;;;10414707;28;20037;-71
2022/01/15 00:51:14;;;;;;;23.03;7.37;;;;;;;;;;10411400;28;20042;-73
2022/01/15 00:56:19;;;;;;;14.87;6.73;;;;;;;;;;10416675;28;20042;-72
2022/01/15 01:01:22;;;;;;;18.97;6.97;;;;;;;;;;10412692;28;20045;-74
2022/01/15 01:06:25;;;;;;;19.53;6.97;;;;;;;;;;10409641;28;20123;-73
2022/01/15 01:11:42;;;;;;;16.37;7.00;;;;;;;;;;10410189;28;20037;-73
2022/01/15 01:27:40;;;;;;;17.03;6.67;;;;;;;;;;10411500;28;20040;-74
2022/01/15 01:32:52;;;;;;;14.47;5.83;;;;;;;;;;10429182;28;20041;-72
2022/01/15 01:37:59;;;;;;;20.60;6.30;;;;;;;;;;10420583;28;20057;-71
2022/01/15 01:43:15;;;;;;;17.23;6.63;;;;;;;;;;10426626;28;20079;-75
2022/01/15 01:48:18;;;;;;;18.90;6.50;;;;;;;;;;10415233;28;20038;-72
2022/01/15 01:53:20;;;;;;;19.33;7.50;;;;;;;;;;10423024;28;20120;-71
2022/01/15 01:58:25;;;;;;;17.20;6.57;;;;;;;;;;10422642;28;20041;-70
2022/01/15 02:03:28;;;;;;;22.63;7.80;;;;;;;;;;10422225;28;20555;-73
2022/01/15 02:08:33;;;;;;;22.23;7.80;;;;;;;;;;10418808;28;20053;-70
2022/01/15 02:13:41;;;;;;;18.73;6.77;;;;;;;;;;10418762;28;20104;-73
2022/01/15 02:18:45;;;;;;;23.27;7.97;;;;;;;;;;10419105;28;20043;-74
2022/01/15 02:23:55;;;;;;;21.63;7.83;;;;;;;;;;10424500;28;20049;-71
2022/01/15 02:29:08;;;;;;;19.83;7.63;;;;;;;;;;10439876;28;20041;-75
2022/01/15 02:34:11;;;;;;;;;;;;;;;;;;10462125;28;20068;-73
2022/01/15 02:39:16;;;;;;;16.73;7.20;;;;;;;;;;10455747;28;19921;-73
2022/01/15 02:44:20;;;;;;;18.27;6.87;;;;;;;;;;10461861;28;20045;-73
2022/01/15 02:49:23;;;;;;;;;;;;;;;;;;10458989;28;20024;-72
2022/01/15 02:54:28;;;;;;;18.17;7.17;;;;;;;;;;10451371;28;19952;-74
2022/01/15 02:59:31;;;;;;;16.33;7.03;;;;;;;;;;10451039;28;20053;-73
2022/01/15 03:04:34;;;;;;;15.77;7.20;;;;;;;;;;10450968;28;20118;-74
2022/01/15 03:09:41;;;;;;;20.15;6.80;;;;;;;;;;10430520;28;20095;-74
2022/01/15 03:14:46;;;;;;;16.67;7.30;;;;;;;;;;10415470;28;20060;-74
2022/01/15 03:19:49;;;;;;;17.77;6.47;;;;;;;;;;10438239;28;20485;-72
2022/01/15 03:24:54;;;;;;;21.43;8.33;;;;;;;;;;10421585;28;20041;-73
2022/01/15 03:29:57;;;;;;;;;;;;;;;;;;10419473;28;20029;-73
2022/01/15 03:35:00;;;;;;;18.77;6.73;;;;;;;;;;10440186;28;19928;-72
2022/01/15 03:40:05;;;;;;;6.23;3.73;;;;;;;;;;10421004;28;20029;-75
2022/01/15 03:45:08;;;;;;;14.67;6.40;;;;;;;;;;10429244;28;20034;-74
2022/01/15 03:50:12;;;;;;;11.63;4.78;;;;;;;;;;10421228;28;20040;-73
2022/01/15 03:55:15;;;;;;;;;;;;;;;;;;10424394;28;20037;-73
2022/01/15 04:00:20;;;;;;;14.03;6.40;;;;;;;;;;10430265;28;19960;-72
2022/01/15 04:05:24;;;;;;;18.37;7.03;;;;;;;;;;10437901;28;20144;-75
2022/01/15 04:10:28;;;;;;;16.88;6.90;;;;;;;;;;10431760;28;20029;-74
2022/01/15 04:15:32;;;;;;;20.80;7.17;;;;;;;;;;10441780;28;20045;-73
2022/01/15 04:20:36;;;;;;;19.80;6.67;;;;;;;;;;10441402;28;20049;-72
2022/01/15 04:25:39;;;;;;;20.33;7.17;;;;;;;;;;10420461;28;20108;-72
2022/01/15 04:30:47;;;;;;;19.97;6.57;;;;;;;;;;10416310;28;20029;-73
2022/01/15 04:35:50;;;;;;;22.67;7.07;;;;;;;;;;10412961;28;20039;-74
2022/01/15 04:40:53;;;;;;;14.50;6.30;;;;;;;;;;10417046;28;20106;-75
2022/01/15 04:45:58;;;;;;;16.87;6.30;;;;;;;;;;10412366;28;20420;-73
2022/01/15 04:51:01;;;;;;;17.13;5.97;;;;;;;;;;10409869;28;20076;-72
2022/01/15 04:56:04;;;;;;;16.53;6.43;;;;;;;;;;10412665;28;20048;-73
2022/01/15 05:01:09;;;;;;;12.23;5.20;;;;;;;;;;10416782;28;20033;-72
2022/01/15 05:06:12;;;;;;;19.37;6.17;;;;;;;;;;10422968;28;20041;-73
2022/01/15 05:11:27;;;;;;;21.60;6.17;;;;;;;;;;10454270;22;20120;-72
2022/01/15 05:16:31;;;;;;;18.17;6.90;;;;;;;;;;10389025;28;20068;-75
2022/01/15 05:21:35;;;;;;;14.20;5.17;;;;;;;;;;10409979;28;20087;-76
2022/01/15 05:26:38;;;;;;;15.27;6.07;;;;;;;;;;10377165;28;20048;-76
2022/01/15 05:31:42;;;;;;;14.83;6.33;;;;;;;;;;10401448;28;20361;-75
2022/01/15 05:36:46;;;;;;;15.83;6.53;;;;;;;;;;10372602;28;20037;-76
2022/01/15 05:41:49;;;;;;;16.50;5.47;;;;;;;;;;10372544;28;20064;-74
2022/01/15 05:46:54;;;;;;;13.97;6.03;;;;;;;;;;10390486;28;20075;-76
2022/01/15 05:51:56;;;;;;;;;;;;;;;;;;10368918;28;20534;-75
2022/01/15 05:57:00;;;;;;;13.90;5.80;;;;;;;;;;10374954;28;19976;-75
2022/01/15 06:02:05;;;;;;;13.05;5.72;;;;;;;;;;10391732;28;20509;-75
2022/01/15 06:07:08;;;;;;;14.33;5.50;;;;;;;;;;10390811;28;20549;-76
2022/01/15 06:12:11;;;;;;;16.13;6.00;;;;;;;;;;10368719;28;20579;-73
2022/01/15 06:17:16;;;;;;;13.40;4.73;;;;;;;;;;10389696;28;20045;-76
2022/01/15 06:22:18;;;;;;;9.15;4.30;;;;;;;;;;10376253;28;20061;-76
2022/01/15 06:27:21;;;;;;;14.30;4.60;;;;;;;;;;10393453;28;20067;-76
2022/01/15 06:32:27;;;;;;;9.23;4.07;;;;;;;;;;10377244;28;20424;-75
2022/01/15 06:37:30;;;;;;;12.97;4.90;;;;;;;;;;10375915;28;20038;-75
2022/01/15 06:42:34;;;;;;;11.77;5.57;;;;;;;;;;10392577;28;20096;-76
2022/01/15 06:47:39;;;;;;;6.50;3.35;;;;;;;;;;10388064;28;20042;-76
2022/01/15 06:52:42;;;;;;;11.57;3.43;;;;;;;;;;10389733;28;20041;-75
2022/01/15 06:57:45;;;;;;;12.57;5.23;;;;;;;;;;10375906;28;20057;-75
2022/01/15 07:02:49;;;;;;;10.67;4.63;;;;;;;;;;10394275;28;20034;-75
2022/01/15 07:07:52;;;;;;;;;;;;;;;;;;10391433;28;20379;-77
2022/01/15 07:12:55;;;;;;;10.70;3.90;;;;;;;;;;10378253;28;19978;-76
2022/01/15 07:18:00;;;;;;;14.83;4.70;;;;;;;;;;10383138;28;20096;-75
2022/01/15 07:23:03;;;;;;;13.27;4.20;;;;;;;;;;10381342;28;20038;-76
2022/01/15 07:28:07;;;;;;;12.38;4.03;;;;;;;;;;10388947;28;20044;-76
2022/01/15 07:33:11;;;;;;;9.50;3.40;;;;;;;;;;10372913;28;20379;-76
2022/01/15 07:38:14;;;;;;;11.17;4.00;;;;;;;;;;10384093;28;20462;-74
2022/01/15 07:43:18;;;;;;;9.87;3.73;;;;;;;;;;10368504;28;20443;-75
2022/01/15 07:48:24;;;;;;;8.73;3.60;;;;;;;;;;10383769;28;20046;-75
2022/01/15 07:53:28;;;;;;;4.87;2.20;;;;;;;;;;10371218;28;20046;-75
2022/01/15 07:58:32;;;;;;;12.88;3.97;;;;;;;;;;10392699;28;20038;-76
2022/01/15 08:03:36;;;;;;;5.40;1.97;;;;;;;;;;10388767;28;20073;-73
2022/01/15 08:08:39;;;;;;;12.32;3.97;;;;;;;;;;10381082;28;20048;-74
2022/01/15 08:13:42;;;;;;;10.40;2.60;;;;;;;;;;10385867;28;20556;-71
2022/01/15 08:18:47;;;;;;;13.70;4.20;;;;;;;;;;10388255;28;20045;-73
2022/01/15 08:23:49;;;;;;;;;;;;;;;;;;10386625;28;20131;-73
2022/01/15 08:28:52;;;;;;;12.33;4.63;;;;;;;;;;10369749;28;19925;-72
2022/01/15 08:33:57;;;;;;;13.83;4.77;;;;;;;;;;10371233;28;20258;-72
2022/01/15 08:38:59;;;;;;;;;;;;;;;;;;10381122;28;20038;-73
2022/01/15 08:44:03;;;;;;;9.17;4.03;;;;;;;;;;10368960;28;20024;-71
2022/01/15 08:49:08;;;;;;;15.38;5.90;;;;;;;;;;10385330;28;20108;-74
2022/01/15 08:54:10;;;;;;;;;;;;;;;;;;10377576;28;20080;-74
2022/01/15 08:59:13;;;;;;;13.00;4.83;;;;;;;;;;10380418;28;20012;-73
2022/01/15 09:04:18;;;;;;;15.80;5.80;;;;;;;;;;10370849;28;20065;-74
2022/01/15 09:09:20;;;;;;;;;;;;;;;;;;10370949;28;20029;-74
2022/01/15 09:14:24;;;;;;;15.53;5.90;;;;;;;;;;10387511;28;19956;-75
2022/01/15 09:19:28;;;;;;;14.20;6.00;;;;;;;;;;10366902;28;20095;-75
2022/01/15 09:24:32;;;;;;;19.03;6.57;;;;;;;;;;10394283;28;20529;-75
2022/01/15 09:34:58;;;;;;;18.47;6.50;;;;;;;;;;10373077;28;20046;-76
2022/01/15 09:40:00;;;;;;;13.33;6.67;;;;;;;;;;10369180;28;20117;-74
2022/01/15 09:45:04;;;;;;;19.47;8.03;;;;;;;;;;10389358;28;20394;-74
2022/01/15 09:50:10;;;;;;;14.63;6.60;;;;;;;;;;10368375;28;20041;-75
2022/01/15 09:55:14;;;;;;;14.23;6.03;;;;;;;;;;10380575;28;20382;-75
2022/01/15 10:00:18;;;;;;;27.48;9.57;;;;;;;;;;10390397;28;20025;-74
2022/01/15 10:05:21;;;;;;;;;;;;;;;;;;10393929;28;20309;-74
2022/01/15 10:10:27;;;;;;;20.60;7.00;;;;;;;;;;10391315;28;19951;-75
2022/01/15 10:15:30;;;;;;;16.77;7.57;;;;;;;;;;10377991;28;20509;-75
2022/01/15 10:20:35;;;;;;;25.35;8.32;;;;;;;;;;10372910;28;20419;-74
2022/01/15 10:25:40;;;;;;;22.67;8.23;;;;;;;;;;10372428;28;20034;-74
2022/01/15 10:30:44;;;;;;;18.67;7.20;;;;;;;;;;10394349;28;20062;-75
2022/01/15 10:35:47;;;;;;;21.63;7.50;;;;;;;;;;10374789;28;20048;-73
2022/01/15 10:40:55;;;;;;;20.60;7.33;;;;;;;;;;10382690;28;20061;-74
2022/01/15 10:46:01;;;;;;;27.07;8.73;;;;;;;;;;10394330;28;20049;-75
2022/01/15 10:51:05;;;;;;;19.33;6.20;;;;;;;;;;10371672;28;20130;-76
2022/01/15 10:56:08;;;;;;;;;;;;;;;;;;10390429;28;20448;-76
2022/01/15 11:01:14;;;;;;;23.53;6.03;;;;;;;;;;10388073;28;20011;-75
2022/01/15 11:06:34;;;;;;;22.87;7.30;;;;;;;;;;10390453;28;20044;-76
2022/01/15 11:11:53;;;;;;;18.97;6.30;;;;;;;;;;10378817;28;20125;-75
2022/01/15 11:16:59;;;;;;;21.10;6.63;;;;;;;;;;10405724;28;20361;-80
2022/01/15 11:22:04;;;;;;;24.90;6.90;;;;;;;;;;10404446;28;20635;-80
2022/01/15 11:27:06;;;;;;;22.70;6.65;;;;;;;;;;10407645;28;20046;-81
2022/01/15 11:32:12;;;;;;;22.03;7.13;;;;;;;;;;10386033;28;20097;-80
2022/01/15 11:37:16;;;;;;;22.53;7.20;;;;;;;;;;10391227;28;20038;-79
2022/01/15 11:42:27;;;;;;;26.52;8.20;;;;;;;;;;10378424;28;20045;-78
2022/01/15 11:47:32;;;;;;;28.07;8.07;;;;;;;;;;10380606;28;20263;-80
2022/01/15 11:52:35;;;;;;;27.47;8.23;;;;;;;;;;10400398;28;20041;-80
2022/01/15 11:57:45;;;;;;;24.33;8.10;;;;;;;;;;10385863;28;20083;-80
2022/01/15 12:03:15;;;;;;;28.27;8.23;;;;;;;;;;10407237;28;20045;-80
2022/01/15 12:08:24;;;;;;;27.53;8.90;;;;;;;;;;10387173;28;20050;-80
2022/01/15 12:13:29;;;;;;;30.67;8.43;;;;;;;;;;10387962;28;20482;-80
2022/01/15 12:18:44;;;;;;;25.07;7.33;;;;;;;;;;10403337;28;20056;-80
2022/01/15 12:23:48;;;;;;;28.77;7.70;;;;;;;;;;10396123;28;20072;-81
2022/01/15 12:28:51;;;;;;;27.10;7.20;;;;;;;;;;10383655;28;20037;-79
2022/01/15 12:33:54;;;;;;;7.47;2.67;;;;;;;;;;10387774;28;20042;-80
2022/01/15 12:38:59;;;;;;;38.50;8.73;;;;;;;;;;10401576;28;20364;-80
2022/01/15 12:44:02;;;;;;;20.50;6.77;;;;;;;;;;10407920;28;20037;-79
2022/01/15 12:49:08;;;;;;;27.15;7.90;;;;;;;;;;10400159;28;20094;-80
2022/01/15 12:54:12;;;;;;;20.23;5.70;;;;;;;;;;10390196;28;20141;-79
2022/01/15 12:59:15;;;;;;;;;;;;;;;;;;10392873;28;20041;-80
2022/01/15 13:04:18;;;;;;;20.27;6.87;;;;;;;;;;10396554;28;20367;-80
2022/01/15 13:09:22;;;;;;;22.13;6.73;;;;;;;;;;10397830;28;20031;-81
2022/01/15 13:14:35;;;;;;;26.73;6.90;;;;;;;;;;10385206;28;20041;-80
2022/01/15 13:19:39;;;;;;;20.47;7.03;;;;;;;;;;10383163;28;20030;-80
2022/01/15 13:24:43;;;;;;;25.40;6.97;;;;;;;;;;10410560;28;20354;-81
2022/01/15 13:29:47;;;;;;;33.50;8.60;;;;;;;;;;10383170;28;20306;-80
2022/01/15 13:34:51;;;;;;;80.27;11.47;;;;;;;;;;10405467;28;20460;-80
2022/01/15 13:39:56;;;;;;;24.53;7.57;;;;;;;;;;10408437;28;20306;-80
2022/01/15 13:45:05;;;;;;;26.50;8.17;;;;;;;;;;10393366;28;20629;-82
2022/01/15 13:55:46;;;;;;;29.50;8.10;;;;;;;;;;10390944;28;20037;-80
2022/01/15 14:00:49;;;;;;;36.73;9.33;;;;;;;;;;10397236;28;20037;-81
2022/01/15 14:05:56;;;;;;;28.73;8.35;;;;;;;;;;10412292;28;20105;-81
2022/01/15 14:11:01;;;;;;;24.00;6.80;;;;;;;;;;10410213;28;20528;-81
2022/01/15 14:16:19;;;;;;;24.10;7.47;;;;;;;;;;10395639;28;20052;-81
2022/01/15 14:26:47;;;;;;;12.83;4.50;;;;;;;;;;10404677;28;20033;-79
2022/01/15 14:31:52;;;;;;;9.37;4.10;;;;;;;;;;10394376;28;20034;-81
2022/01/15 14:36:55;;;;;;;5.83;2.47;;;;;;;;;;10387873;28;20029;-80
2022/01/15 14:42:00;;;;;;;11.80;4.07;;;;;;;;;;10410874;28;20061;-79
2022/01/15 14:47:04;;;;;;;25.50;7.33;;;;;;;;;;10405089;28;20327;-80
2022/01/15 14:52:07;;;;;;;;;;;;;;;;;;10389588;28;20060;-79
2022/01/15 14:57:11;;;;;;;18.77;5.43;;;;;;;;;;10408951;28;20064;-80
2022/01/15 15:02:14;;;;;;;;;;;;;;;;;;10410831;28;20512;-80
2022/01/15 15:07:17;;;;;;;22.20;6.27;;;;;;;;;;10388045;28;19971;-82
2022/01/15 15:12:33;;;;;;;22.60;5.87;;;;;;;;;;10387443;28;20098;-79
2022/01/15 15:17:36;;;;;;;20.70;5.10;;;;;;;;;;10394733;28;20041;-81
2022/01/15 15:22:39;;;;;;;19.97;5.60;;;;;;;;;;10409647;28;20129;-80
2022/01/15 15:27:44;;;;;;;24.20;7.33;;;;;;;;;;10412736;28;20568;-80
2022/01/15 15:32:47;;;;;;;17.47;5.67;;;;;;;;;;10389603;28;20692;-79
2022/01/15 15:37:51;;;;;;;23.17;6.37;;;;;;;;;;10404422;28;20418;-80
2022/01/15 15:42:54;;;;;;;;;;;;;;;;;;10421047;28;20048;-79
2022/01/15 15:47:58;;;;;;;17.17;4.47;;;;;;;;;;10408063;28;19941;-81
2022/01/15 15:53:01;;;;;;;;;;;;;;;;;;10417362;28;20529;-80
2022/01/15 15:58:04;;;;;;;20.37;6.70;;;;;;;;;;10420276;28;19952;-80
2022/01/15 16:03:08;;;;;;;19.90;6.47;;;;;;;;;;10421329;28;20037;-80
2022/01/15 16:08:11;;;;;;;24.50;6.83;;;;;;;;;;10404921;28;20072;-80
2022/01/15 16:13:15;;;;;;;25.50;6.97;;;;;;;;;;10418497;28;20025;-78
2022/01/15 16:18:20;;;;;;;22.05;7.40;;;;;;;;;;10413349;28;20493;-79
2022/01/15 16:23:23;;;;;;;27.10;7.83;;;;;;;;;;10408449;28;20456;-78
2022/01/15 16:28:26;;;;;;;21.43;6.03;;;;;;;;;;10405518;28;20038;-79
2022/01/15 16:33:36;;;;;;;13.00;4.80;;;;;;;;;;10410479;28;20060;-81
2022/01/15 16:38:39;;;;;;;22.87;6.83;;;;;;;;;;10392898;28;20042;-82
2022/01/15 16:43:42;;;;;;;18.50;5.77;;;;;;;;;;10411356;28;20054;-79
2022/01/15 16:48:47;;;;;;;23.13;7.77;;;;;;;;;;10386858;28;20102;-81
2022/01/15 16:53:49;;;;;;;;;;;;;;;;;;10407226;28;20056;-80
2022/01/15 16:58:52;;;;;;;18.57;5.83;;;;;;;;;;10404772;28;19925;-81
2022/01/15 17:03:56;;;;;;;22.10;5.27;;;;;;;;;;10402618;28;20030;-81
2022/01/15 17:08:59;;;;;;;23.03;6.83;;;;;;;;;;10390411;28;20049;-81
2022/01/15 17:14:07;;;;;;;19.97;6.33;;;;;;;;;;10412108;28;20099;-81
2022/01/15 17:19:11;;;;;;;20.57;6.63;;;;;;;;;;10415455;28;20046;-80
2022/01/15 17:24:13;;;;;;;;;;;;;;;;;;10409992;28;20044;-77
2022/01/15 17:29:16;;;;;;;17.40;6.03;;;;;;;;;;10405233;28;19928;-80
2022/01/15 17:34:21;;;;;;;26.00;6.00;;;;;;;;;;10421657;28;20465;-80
2022/01/15 17:39:25;;;;;;;23.67;7.53;;;;;;;;;;10414746;28;20092;-79
2022/01/15 17:44:28;;;;;;;28.47;7.17;;;;;;;;;;10396527;28;20052;-79
2022/01/15 17:49:33;;;;;;;25.33;7.20;;;;;;;;;;10406974;28;20127;-79
2022/01/15 17:54:36;;;;;;;29.70;8.00;;;;;;;;;;10416515;28;20056;-80
2022/01/15 17:59:39;;;;;;;28.43;7.70;;;;;;;;;;10412039;28;20139;-80
2022/01/15 18:04:43;;;;;;;26.57;7.10;;;;;;;;;;10409002;28;20056;-81
2022/01/15 18:09:47;;;;;;;24.33;7.10;;;;;;;;;;10402510;28;20064;-81
2022/01/15 18:14:51;;;;;;;28.20;7.87;;;;;;;;;;10410137;28;20109;-79
2022/01/15 18:19:55;;;;;;;29.35;8.05;;;;;;;;;;10413015;28;20032;-79
2022/01/15 18:24:58;;;;;;;27.63;8.17;;;;;;;;;;10390089;28;20037;-80
2022/01/15 18:30:01;;;;;;;34.33;9.50;;;;;;;;;;10416246;28;20069;-80
2022/01/15 18:35:20;;;;;;;24.90;7.93;;;;;;;;;;10400998;28;20038;-81
2022/01/15 18:40:23;;;;;;;13.93;3.07;;;;;;;;;;10412874;28;20041;-80
2022/01/15 18:45:27;;;;;;;24.70;7.63;;;;;;;;;;10398408;28;20060;-80
2022/01/15 18:50:34;;;;;;;8.48;2.80;;;;;;;;;;10415275;28;20110;-79
2022/01/15 18:55:36;;;;;;;30.27;8.43;;;;;;;;;;10409762;28;20038;-79
2022/01/15 19:00:41;;;;;;;22.80;7.07;;;;;;;;;;10405884;28;20676;-80
2022/01/15 19:05:46;;;;;;;31.07;8.27;;;;;;;;;;10397747;28;20288;-80
2022/01/15 19:10:49;;;;;;;24.07;6.33;;;;;;;;;;10412749;28;20041;-80
2022/01/15 19:15:52;;;;;;;16.03;5.33;;;;;;;;;;10409054;28;20037;-80
2022/01/15 19:20:56;;;;;;;16.63;6.00;;;;;;;;;;10395553;28;20065;-80
2022/01/15 19:25:59;;;;;;;9.03;3.50;;;;;;;;;;10383368;28;20049;-80
2022/01/15 19:31:03;;;;;;;23.83;6.03;;;;;;;;;;10406795;28;20141;-80
2022/01/15 19:36:07;;;;;;;24.03;6.90;;;;;;;;;;10408291;28;20523;-80
2022/01/15 19:41:10;;;;;;;28.67;8.30;;;;;;;;;;10408507;28;20041;-80
2022/01/15 19:46:15;;;;;;;31.63;8.67;;;;;;;;;;10413124;28;20041;-80
2022/01/15 19:51:20;;;;;;;34.23;7.97;;;;;;;;;;10384741;28;20038;-80
2022/01/15 19:56:23;;;;;;;18.37;5.50;;;;;;;;;;10403039;28;20038;-79
2022/01/15 20:01:26;;;;;;;13.50;4.53;;;;;;;;;;10406835;28;20598;-81
2022/01/15 20:06:31;;;;;;;28.25;9.35;;;;;;;;;;10401868;28;20041;-80
2022/01/15 20:11:34;;;;;;;;;;;;;;;;;;10397318;28;20041;-80
2022/01/15 20:16:43;;;;;;;25.97;7.17;;;;;;;;;;10398434;28;20376;-81
2022/01/15 20:21:47;;;;;;;30.13;9.30;;;;;;;;;;10392351;28;20445;-79
2022/01/15 20:26:50;;;;;;;;;;;;;;;;;;10402022;28;20036;-80
2022/01/15 20:31:54;;;;;;;40.07;10.87;;;;;;;;;;10390384;28;20392;-79
2022/01/15 20:36:58;;;;;;;35.83;8.50;;;;;;;;;;10388312;28;20105;-82
2022/01/15 20:42:03;;;;;;;;;;;;;;;;;;10405846;28;20045;-83
2022/01/15 20:47:05;;;;;;;;;;;;;;;;;;10385581;28;19940;-81
2022/01/15 20:52:10;;;;;;;7.60;2.17;;;;;;;;;;10403717;28;19939;-81
2022/01/15 20:57:13;;;;;;;28.30;8.50;;;;;;;;;;10405094;28;20049;-81
2022/01/15 21:02:17;;;;;;;24.90;7.87;;;;;;;;;;10390065;28;20088;-79
2022/01/15 21:07:22;;;;;;;29.80;8.30;;;;;;;;;;10387374;28;20088;-80
2022/01/15 21:12:25;;;;;;;25.10;7.17;;;;;;;;;;10400576;28;20116;-81
2022/01/15 21:17:28;;;;;;;27.17;8.00;;;;;;;;;;10400167;28;20125;-81
2022/01/15 21:22:33;;;;;;;27.40;7.63;;;;;;;;;;10386495;28;20056;-80
2022/01/15 21:27:36;;;;;;;32.23;8.63;;;;;;;;;;10388820;28;20037;-79
2022/01/15 21:32:39;;;;;;;27.47;7.50;;;;;;;;;;10387136;28;20033;-80
2022/01/15 21:37:43;;;;;;;29.10;8.00;;;;;;;;;;10386019;28;20520;-81
2022/01/15 21:42:48;;;;;;;33.00;8.60;;;;;;;;;;10388041;28;20030;-80
2022/01/15 21:47:51;;;;;;;27.70;7.90;;;;;;;;;;10388239;28;20109;-79
2022/01/15 21:52:56;;;;;;;21.38;6.82;;;;;;;;;;10384148;28;20034;-80
2022/01/15 21:57:59;;;;;;;25.00;7.53;;;;;;;;;;10392476;28;20562;-79
2022/01/15 22:03:03;;;;;;;26.53;7.40;;;;;;;;;;10407042;28;20046;-80
2022/01/15 22:08:07;;;;;;;31.65;7.95;;;;;;;;;;10395275;28;20052;-80
2022/01/15 22:13:11;;;;;;;32.00;7.67;;;;;;;;;;10393468;28;20434;-79
2022/01/15 22:18:14;;;;;;;36.73;9.17;;;;;;;;;;10410201;28;20033;-80
2022/01/15 22:23:18;;;;;;;16.73;5.13;;;;;;;;;;10405842;28;20041;-79
2022/01/15 22:28:20;;;;;;;;;;;;;;;;;;10387765;28;20052;-78
2022/01/15 22:33:23;;;;;;;20.17;5.53;;;;;;;;;;10406204;28;19978;-79
2022/01/15 22:38:27;;;;;;;23.03;6.80;;;;;;;;;;10393631;28;20047;-79
2022/01/15 22:43:32;;;;;;;23.33;7.30;;;;;;;;;;10402239;28;20160;-78
2022/01/15 22:48:35;;;;;;;21.90;6.20;;;;;;;;;;10403785;28;20084;-79
2022/01/15 22:53:39;;;;;;;25.13;7.43;;;;;;;;;;10405743;28;20041;-79
2022/01/15 22:58:42;;;;;;;7.83;3.43;;;;;;;;;;10405887;28;20037;-79
2022/01/15 23:03:45;;;;;;;28.20;7.70;;;;;;;;;;10404863;28;20037;-80
2022/01/15 23:08:50;;;;;;;30.05;7.85;;;;;;;;;;10383382;28;20038;-79
2022/01/15 23:14:01;;;;;;;;;;;;;;;;;;10409547;28;20036;-79
2022/01/15 23:19:04;;;;;;;10.37;3.40;;;;;;;;;;10402251;28;19968;-79
2022/01/15 23:24:08;;;;;;;30.37;9.77;;;;;;;;;;10398610;28;20037;-79
2022/01/15 23:29:11;;;;;;;5.73;2.57;;;;;;;;;;10404768;28;20381;-79
2022/01/15 23:34:14;;;;;;;24.10;8.07;;;;;;;;;;10403448;28;20029;-79
2022/01/15 23:39:18;;;;;;;26.70;8.07;;;;;;;;;;10385181;28;20203;-79
2022/01/15 23:44:25;;;;;;;;;;;;;;;;;;10408918;28;20048;-79
2022/01/15 23:49:28;;;;;;;1.73;1.37;;;;;;;;;;10391006;28;19931;-77
2022/01/15 23:54:32;;;;;;;28.77;7.77;;;;;;;;;;10410741;28;20580;-78
2022/01/15 23:59:39;;;;;;;18.30;6.07;;;;;;;;;;10405016;28;20041;-78
